« Back
NWS Peachtree City, Ga » Text Product » ATL Terminal Aerodrome Forecast


Printer-friendly Version
Current Version              Previous Versions:   1  2  3  4  5  6  7  8  9  

Terminal Aerodrome Forecast

028
FTUS42 KFFC 270139 AAA
TAFATL
TAF AMD
KATL 270139Z 2702/2806 11006KT P6SM SCT050 SCT120
     FM270500 16004KT P6SM SCT015 BKN100
     FM271000 27003KT P6SM BKN025 BKN100
     FM271500 28008KT P6SM VCSH SCT035 BKN120 PROB30 2717/2721 5SM
      -TSRA OVC025CB
     FM272200 30006KT P6SM SCT100=

USA.gov is the U.S. government's official web portal to all federal, state and local government web resources and services.